Pagrindinis puslapis
METAR-TAF:

METAR-TAF

Oro uostai :

Honkongo tarptautinis oro uostas

Honkongas, Kinija

platuma: 22-19N, ilguma: 113-55E, Aukštis: 9 m

Dabartinis oras

Ataskaita buvo paskelbta 20 minutes, ne 15:00 UTC
Vėjas 11 kt iš Šiaurės/Šiaurės Rytų
Temperatūra 12°C
Drėgmė 62%
Slėgis 1019 hPa
Matomumas 10 km arba daugiau
Mažai debesys ne aukštis 4000 ft

METAR: VHHH 271500Z 03011KT 9999 FEW040 12/05 Q1019 NOSIG

Laikas: 23:20 (15:20 UTC)

Prognozė

Ataskaita buvo paskelbta 4 valandos ir 20 minutes, ne 11:00 UTC
Prognozė galioja nuo 27 metu 12 UTC su 28 metu 18 UTC
Vėjas 10 kt iš Šiaurės/Šiaurės Rytų
Matomumas 10 km arba daugiau
Mažai debesys ne aukštis 3000 ft
Laikinai
nuo 28 metu 04 UTC su 28 metu 10 UTC
Vėjas 10 kt iš Šiaurės/Šiaurės Vakarų

TAF: VHHH 271100Z 2712/2818 03010KT 9999 FEW030 TX17/2806Z TN11/2723Z TEMPO 2804/2810 33010KT

Orai ataskaitas ir orų prognozės (METAR, TAF).

turimą stotys yra geltonos ir raudonos taškus žemėlapyje.

Perkelti pele per norėdami pamatyti stoties vardą.

Tada spustelėkite, norėdami matyti oro stebėjimo ir prognozės.

Norėdami pakeisti žemėlapį: spustelėkite ant žalios mygtukų su juodo kryžiaus žemyn,; žalią mygtuką su brūkšneliu, jei norite nutolinti; arba žalių rodyklių gretimoms žemėlapius.


METAR-TAF: